createdAt,value
2019-01-30T00:01:33.582Z,8.00
2019-01-30T00:04:14.209Z,7.93
2019-01-30T00:07:07.788Z,9.20
2019-01-30T00:10:17.137Z,10.20
2019-01-30T00:13:19.463Z,8.57
2019-01-30T00:16:12.780Z,10.70
2019-01-30T00:19:08.969Z,9.17
2019-01-30T00:22:07.053Z,6.47
2019-01-30T00:25:14.473Z,11.40
2019-01-30T00:28:24.777Z,9.97
2019-01-30T00:31:02.447Z,8.60
2019-01-30T00:34:05.657Z,10.07
2019-01-30T00:36:55.647Z,10.13
2019-01-30T00:39:50.072Z,10.20
2019-01-30T00:46:07.637Z,8.50
2019-01-30T00:49:14.974Z,9.13
2019-01-30T00:56:07.272Z,10.87
2019-01-30T01:02:16.337Z,12.10
2019-01-30T01:05:14.666Z,7.53
2019-01-30T01:07:57.823Z,7.07
2019-01-30T01:10:49.948Z,10.67
2019-01-30T01:14:00.237Z,11.50
2019-01-30T01:16:37.641Z,8.77
2019-01-30T01:19:41.775Z,8.70
2019-01-30T01:22:37.704Z,12.83
2019-01-30T01:28:52.661Z,7.97
2019-01-30T01:31:30.843Z,8.40
2019-01-30T01:34:07.625Z,13.77
2019-01-30T01:36:48.644Z,10.43
2019-01-30T01:39:46.726Z,14.60
2019-01-30T01:42:50.808Z,15.77
2019-01-30T01:45:41.139Z,8.83
2019-01-30T01:48:18.178Z,10.00
2019-01-30T01:51:23.527Z,12.50
2019-01-30T01:57:30.484Z,11.37
2019-01-30T02:00:14.965Z,16.93
2019-01-30T02:02:57.522Z,8.30
2019-01-30T02:05:55.249Z,11.63
2019-01-30T02:08:55.507Z,9.47
2019-01-30T02:11:37.461Z,11.73
2019-01-30T02:14:33.959Z,13.67
2019-01-30T02:17:16.982Z,17.37
2019-01-30T02:20:15.706Z,12.93
2019-01-30T02:23:21.255Z,14.33
2019-01-30T02:26:22.561Z,11.93
2019-01-30T02:29:34.234Z,14.67
2019-01-30T02:35:36.788Z,15.03
2019-01-30T02:38:37.029Z,17.30
2019-01-30T02:41:32.463Z,13.50
2019-01-30T02:44:08.970Z,12.77
2019-01-30T02:47:09.413Z,17.17
2019-01-30T02:53:17.344Z,13.70
2019-01-30T02:56:05.467Z,12.67
2019-01-30T02:59:06.151Z,12.90
2019-01-30T03:01:54.185Z,14.00
2019-01-30T03:04:27.820Z,12.20
2019-01-30T03:07:03.779Z,11.80
2019-01-30T03:09:50.480Z,18.93
2019-01-30T03:12:29.597Z,14.13
2019-01-30T03:15:22.352Z,13.67
2019-01-30T03:18:20.914Z,15.60
2019-01-30T03:21:05.177Z,12.57
2019-01-30T03:23:54.778Z,11.50
2019-01-30T03:26:41.708Z,12.10
2019-01-30T03:29:25.394Z,17.33
2019-01-30T03:31:59.375Z,13.60
2019-01-30T03:34:38.554Z,14.47
2019-01-30T03:37:13.672Z,15.03
2019-01-30T03:40:29.382Z,17.10
2019-01-30T03:43:08.673Z,15.23
2019-01-30T03:45:39.911Z,16.70
2019-01-30T03:48:29.195Z,14.67
2019-01-30T03:51:06.682Z,13.88
2019-01-30T03:53:56.609Z,16.87
2019-01-30T03:56:36.768Z,13.73
2019-01-30T03:59:18.718Z,18.60
2019-01-30T04:02:03.509Z,17.40
2019-01-30T04:04:35.937Z,17.60
2019-01-30T04:07:11.243Z,21.03
2019-01-30T04:09:49.887Z,19.60
2019-01-30T04:12:51.359Z,23.07
2019-01-30T04:15:52.291Z,14.00
2019-01-30T04:18:27.933Z,21.10
2019-01-30T04:21:05.888Z,17.97
2019-01-30T04:23:46.884Z,14.50
2019-01-30T04:26:30.347Z,17.83
2019-01-30T04:29:06.014Z,17.13
2019-01-30T04:31:49.227Z,14.40
2019-01-30T04:34:21.742Z,11.30
2019-01-30T04:37:06.824Z,21.20
2019-01-30T04:39:40.283Z,16.65
2019-01-30T04:42:32.796Z,17.50
2019-01-30T04:45:10.086Z,18.30
2019-01-30T04:47:45.057Z,14.70
2019-01-30T04:50:27.783Z,23.03
2019-01-30T04:53:10.508Z,17.30
2019-01-30T04:55:55.010Z,18.97
2019-01-30T04:58:34.802Z,16.63
2019-01-30T05:01:11.604Z,18.63
2019-01-30T05:03:54.643Z,15.83
2019-01-30T05:06:34.557Z,17.63
2019-01-30T05:09:31.982Z,14.20
2019-01-30T05:15:53.211Z,17.53
2019-01-30T05:18:59.069Z,18.27
2019-01-30T05:22:24.502Z,18.60
2019-01-30T05:25:22.070Z,19.00
2019-01-30T05:28:46.023Z,15.03
2019-01-30T05:31:28.711Z,21.50
2019-01-30T05:34:14.702Z,19.70
2019-01-30T05:37:08.587Z,10.53
2019-01-30T05:40:06.447Z,19.67
2019-01-30T05:43:11.459Z,15.17
2019-01-30T05:45:52.862Z,13.93
2019-01-30T05:48:59.290Z,11.97
2019-01-30T05:51:37.268Z,15.10
2019-01-30T05:54:23.372Z,10.80
2019-01-30T05:57:49.275Z,14.73
2019-01-30T06:00:53.484Z,13.33
2019-01-30T06:03:43.018Z,16.43
2019-01-30T06:06:35.829Z,21.57
2019-01-30T06:09:21.327Z,10.80
2019-01-30T06:12:41.818Z,14.23
2019-01-30T06:15:57.510Z,12.20
2019-01-30T06:20:11.239Z,11.37
2019-01-30T06:23:24.456Z,16.03
2019-01-30T06:26:53.399Z,13.22
2019-01-30T06:37:21.583Z,11.17
2019-01-30T06:40:08.771Z,11.77
2019-01-30T06:46:10.379Z,13.43
2019-01-30T06:49:10.657Z,12.17
2019-01-30T06:52:37.792Z,11.70
2019-01-30T06:56:05.876Z,10.10
2019-01-30T06:59:14.264Z,19.65
2019-01-30T07:05:28.346Z,14.93
2019-01-30T07:08:33.103Z,15.37
2019-01-30T07:11:50.960Z,12.03
2019-01-30T07:15:02.170Z,13.90
2019-01-30T07:18:02.862Z,13.90
2019-01-30T07:20:50.102Z,18.10
2019-01-30T07:27:40.824Z,12.80
2019-01-30T07:30:56.042Z,17.07
2019-01-30T07:37:59.970Z,15.47
2019-01-30T07:41:21.523Z,14.83
2019-01-30T07:44:18.263Z,15.73
2019-01-30T07:47:24.678Z,18.97
2019-01-30T07:50:12.412Z,17.13
2019-01-30T07:53:46.077Z,14.70
2019-01-30T07:57:01.663Z,18.13
2019-01-30T08:07:23.078Z,18.60
2019-01-30T08:10:26.983Z,18.57
2019-01-30T08:13:41.010Z,15.87
2019-01-30T08:16:35.781Z,19.50
2019-01-30T08:19:41.839Z,14.70
2019-01-30T08:22:55.224Z,19.63
2019-01-30T08:26:35.629Z,23.57
2019-01-30T08:29:54.073Z,16.00
2019-01-30T08:36:41.947Z,16.33
2019-01-30T08:40:04.424Z,18.90
2019-01-30T08:42:52.224Z,17.50
2019-01-30T08:46:10.841Z,15.93
2019-01-30T08:49:15.699Z,24.07
2019-01-30T08:52:32.972Z,19.70
2019-01-30T08:55:54.879Z,18.13
2019-01-30T08:58:41.801Z,18.43
2019-01-30T09:02:02.035Z,16.90
2019-01-30T09:05:20.479Z,19.90
2019-01-30T09:11:47.141Z,13.97
2019-01-30T09:15:06.842Z,23.43
2019-01-30T09:22:08.743Z,18.73
2019-01-30T09:25:50.065Z,20.67
2019-01-30T09:29:12.258Z,18.50
2019-01-30T09:32:00.501Z,20.07
2019-01-30T09:38:37.588Z,21.90
2019-01-30T09:42:10.524Z,19.47
2019-01-30T09:45:30.390Z,20.57
2019-01-30T09:48:37.060Z,25.63
2019-01-30T10:03:04.914Z,26.27
2019-01-30T10:06:15.915Z,29.37
2019-01-30T10:09:38.756Z,36.53
2019-01-30T10:12:44.741Z,22.73
2019-01-30T10:15:52.208Z,26.67
2019-01-30T10:19:14.620Z,32.20
2019-01-30T10:22:19.101Z,24.77
2019-01-30T10:25:30.179Z,30.20
2019-01-30T10:28:27.756Z,28.03
2019-01-30T10:31:26.927Z,31.93
2019-01-30T10:34:27.517Z,29.20
2019-01-30T10:37:25.462Z,26.30
2019-01-30T10:40:50.285Z,32.93
2019-01-30T10:45:14.210Z,33.63
2019-01-30T10:47:13.191Z,29.03
2019-01-30T10:50:09.920Z,28.67
2019-01-30T10:53:22.464Z,26.67
2019-01-30T10:56:29.600Z,30.47
2019-01-30T10:59:49.597Z,30.30
2019-01-30T11:06:15.614Z,30.67
2019-01-30T11:12:52.681Z,31.80
2019-01-30T11:16:01.400Z,32.80
2019-01-30T11:16:55.794Z,26.47
2019-01-30T11:19:11.873Z,32.33
2019-01-30T11:22:02.524Z,38.20
2019-01-30T11:25:15.940Z,28.00
2019-01-30T11:28:52.742Z,29.13
2019-01-30T11:32:00.847Z,29.97
2019-01-30T11:34:53.053Z,37.73
2019-01-30T11:38:09.421Z,27.60
2019-01-30T11:41:47.513Z,31.73
2019-01-30T11:45:02.866Z,38.30
2019-01-30T11:48:01.283Z,25.87
2019-01-30T11:51:16.947Z,28.90
2019-01-30T11:54:56.912Z,27.10
2019-01-30T12:01:37.102Z,40.73
2019-01-30T12:04:44.393Z,39.27
2019-01-30T12:07:51.116Z,30.83
2019-01-30T12:14:27.910Z,35.50
2019-01-30T12:18:01.156Z,33.50
2019-01-30T12:21:03.468Z,31.97
2019-01-30T12:24:06.401Z,34.30
2019-01-30T12:27:44.402Z,34.70
2019-01-30T12:31:06.908Z,34.90
2019-01-30T12:34:39.204Z,39.23
2019-01-30T12:38:41.825Z,36.57
2019-01-30T12:42:03.493Z,38.10
2019-01-30T12:45:37.270Z,35.67
2019-01-30T12:48:41.344Z,37.83
2019-01-30T12:52:26.267Z,41.20
2019-01-30T12:55:40.643Z,43.30
2019-01-30T12:58:43.636Z,39.00
2019-01-30T13:02:17.538Z,43.30
2019-01-30T13:05:36.814Z,44.37
2019-01-30T13:09:00.746Z,46.70
2019-01-30T13:20:28.883Z,46.33
2019-01-30T13:24:22.871Z,43.10
2019-01-30T13:34:24.462Z,54.07
2019-01-30T13:38:21.481Z,54.07
2019-01-30T13:41:40.127Z,48.07
2019-01-30T13:45:17.505Z,49.37
2019-01-30T13:48:37.383Z,47.70
2019-01-30T13:51:35.023Z,48.43
2019-01-30T13:55:07.273Z,54.05
2019-01-30T13:58:42.655Z,47.57
2019-01-30T14:02:14.537Z,45.17
2019-01-30T14:05:28.977Z,47.07
2019-01-30T14:13:00.019Z,51.73
2019-01-30T14:16:43.665Z,54.90
2019-01-30T14:20:27.780Z,49.93
2019-01-30T14:24:12.139Z,44.20
2019-01-30T14:27:29.383Z,53.30
2019-01-30T14:30:41.540Z,46.17
2019-01-30T14:34:48.210Z,48.87
2019-01-30T14:38:30.092Z,53.63
2019-01-30T14:48:38.146Z,42.10
2019-01-30T14:51:31.383Z,48.70
2019-01-30T14:55:16.638Z,54.17
2019-01-30T15:18:03.921Z,42.77
2019-01-30T15:21:49.498Z,40.13
2019-01-30T15:25:21.986Z,43.87
2019-01-30T15:36:55.895Z,45.73
2019-01-30T15:40:16.150Z,73.80
2019-01-30T15:43:25.761Z,46.70
2019-01-30T15:46:39.840Z,33.53
2019-01-30T15:53:57.760Z,42.73
2019-01-30T15:57:08.769Z,47.77
2019-01-30T16:00:14.795Z,52.43
2019-01-30T16:04:06.565Z,50.53
2019-01-30T16:10:49.614Z,47.13
2019-01-30T16:14:07.000Z,49.40
2019-01-30T16:17:38.419Z,49.00
2019-01-30T16:24:27.998Z,44.47
2019-01-30T16:27:36.209Z,54.13
2019-01-30T16:31:25.029Z,44.27
2019-01-30T16:35:05.575Z,43.83
2019-01-30T16:38:31.070Z,47.60
2019-01-30T16:42:06.323Z,56.50
2019-01-30T16:45:17.663Z,48.45
2019-01-30T16:52:03.914Z,51.23
2019-01-30T16:59:18.552Z,56.70
2019-01-30T17:05:11.625Z,52.43
2019-01-30T17:16:09.279Z,53.80
2019-01-30T17:23:10.276Z,49.20
2019-01-30T17:30:02.081Z,58.20
2019-01-30T17:33:35.712Z,59.10
2019-01-30T17:44:41.578Z,48.90
2019-01-30T17:56:11.018Z,54.27
2019-01-30T17:59:53.434Z,51.40
2019-01-30T18:03:02.638Z,50.93
2019-01-30T18:05:55.495Z,51.67
2019-01-30T18:09:01.646Z,55.87
2019-01-30T18:15:28.141Z,47.77
2019-01-30T18:22:19.925Z,51.28
2019-01-30T18:28:47.892Z,51.20
2019-01-30T19:05:40.265Z,56.63
2019-01-30T19:19:36.445Z,55.98
2019-01-30T19:27:55.935Z,56.07
2019-01-30T19:31:18.683Z,59.97
2019-01-30T19:34:31.976Z,47.67
2019-01-30T19:38:14.443Z,47.00
2019-01-30T19:42:30.192Z,56.60
2019-01-30T19:45:44.290Z,50.47
2019-01-30T20:07:58.026Z,56.10
2019-01-30T20:12:15.821Z,56.70
2019-01-30T20:16:27.738Z,67.60
2019-01-30T20:19:32.593Z,60.53
2019-01-30T20:23:12.861Z,59.40
2019-01-30T20:38:37.457Z,53.33
2019-01-30T20:46:28.412Z,56.50
2019-01-30T20:49:40.098Z,54.20
2019-01-30T20:52:57.957Z,58.87
2019-01-30T20:55:53.878Z,48.33
2019-01-30T21:02:43.708Z,50.03
2019-01-30T21:06:47.082Z,45.57
2019-01-30T21:08:36.193Z,49.37
2019-01-30T21:11:54.486Z,42.93
2019-01-30T21:15:02.329Z,48.17
2019-01-30T21:18:06.008Z,51.60
2019-01-30T21:21:24.937Z,46.10
2019-01-30T21:24:43.362Z,53.63
2019-01-30T21:27:46.716Z,47.37
2019-01-30T21:31:27.597Z,45.63
2019-01-30T21:34:34.932Z,49.60
2019-01-30T21:37:48.626Z,50.93
2019-01-30T21:40:46.247Z,48.93
2019-01-30T21:43:24.675Z,52.77
2019-01-30T21:46:19.224Z,50.40
2019-01-30T21:49:47.774Z,32.13
2019-01-30T21:53:34.052Z,56.60
2019-01-30T21:55:52.455Z,57.73
2019-01-30T22:02:36.369Z,52.80
2019-01-30T22:05:43.195Z,47.83
2019-01-30T22:09:14.920Z,47.65
2019-01-30T22:19:54.551Z,56.53
2019-01-30T22:26:36.954Z,46.67
2019-01-30T22:30:11.996Z,51.77
2019-01-30T22:33:47.327Z,47.57
2019-01-30T22:37:00.880Z,54.77
2019-01-30T22:40:17.504Z,51.73
2019-01-30T22:43:35.491Z,49.70
2019-01-30T22:46:40.169Z,42.33
2019-01-30T22:49:54.567Z,46.93
2019-01-30T22:53:05.322Z,51.03
2019-01-30T22:56:35.069Z,47.50
2019-01-30T22:59:49.072Z,44.30
2019-01-30T23:06:45.752Z,39.60
2019-01-30T23:09:58.656Z,51.67
2019-01-30T23:13:23.424Z,54.40
2019-01-30T23:16:35.784Z,52.90
2019-01-30T23:19:53.533Z,52.13
2019-01-30T23:23:27.137Z,50.03
2019-01-30T23:26:57.808Z,49.83
2019-01-30T23:30:40.881Z,46.00
2019-01-30T23:33:50.786Z,47.03
2019-01-30T23:37:46.191Z,50.83
2019-01-30T23:45:18.085Z,44.97
2019-01-30T23:48:42.753Z,45.60
2019-01-30T23:52:29.374Z,44.20
2019-01-30T23:55:54.917Z,38.97
